Time;durP1;ratioP1;P1;durP2;ratioP2;P2;SDS_P1;SDS_P2;PMS_P1;PMS_P2;Temp;Humidity;BMP_temperature;BMP_pressure;BME280_temperature;BME280_humidity;BME280_pressure;Samples;Min_cycle;Max_cycle;Signal;HPM_P1;HPM_P2
2022/04/27 00:01:34;;;;;;;8.83;7.23;;;4.90;99.90;;;;;;5053376;28;20064;-75
2022/04/27 00:03:59;;;;;;;8.17;6.77;;;4.90;99.90;;;;;;5054019;28;20056;-75
2022/04/27 00:06:25;;;;;;;8.47;6.80;;;5.00;99.90;;;;;;5036687;28;20045;-75
2022/04/27 00:08:50;;;;;;;6.77;6.07;;;5.00;99.90;;;;;;5054483;28;20040;-75
2022/04/27 00:11:16;;;;;;;9.93;6.90;;;5.00;99.90;;;;;;5054454;28;20530;-75
2022/04/27 00:13:42;;;;;;;8.10;6.87;;;5.00;99.90;;;;;;5054244;28;20512;-75
2022/04/27 00:16:07;;;;;;;8.83;6.60;;;5.00;99.90;;;;;;5054343;28;20374;-75
2022/04/27 00:18:33;;;;;;;8.10;7.27;;;5.00;99.90;;;;;;5054425;28;20499;-75
2022/04/27 00:20:58;;;;;;;12.13;7.70;;;5.00;99.90;;;;;;5036255;28;20052;-75
2022/04/27 00:23:25;;;;;;;8.00;7.00;;;5.00;99.90;;;;;;5054310;28;20025;-74
2022/04/27 00:25:51;;;;;;;8.97;7.30;;;5.00;99.90;;;;;;5054185;28;20017;-74
2022/04/27 00:28:17;;;;;;;9.33;7.40;;;4.90;99.90;;;;;;5054212;28;20098;-74
2022/04/27 00:30:42;;;;;;;10.00;8.13;;;4.90;99.90;;;;;;5053966;28;20052;-74
2022/04/27 00:33:10;;;;;;;10.33;7.60;;;4.90;99.90;;;;;;5053829;28;20520;-74
2022/04/27 00:35:37;;;;;;;10.07;8.23;;;4.90;99.90;;;;;;5053903;28;20515;-74
2022/04/27 00:38:02;;;;;;;9.10;8.07;;;4.90;99.90;;;;;;5054007;28;20032;-74
2022/04/27 00:40:28;;;;;;;9.20;7.77;;;4.80;99.90;;;;;;5054033;28;20021;-74
2022/04/27 00:42:53;;;;;;;11.33;8.40;;;4.80;99.90;;;;;;5053320;28;20032;-75
2022/04/27 00:45:19;;;;;;;13.43;8.03;;;4.80;99.90;;;;;;5054032;28;20372;-74
2022/04/27 00:47:45;;;;;;;9.57;8.47;;;4.80;99.90;;;;;;5053633;28;20032;-74
2022/04/27 00:50:11;;;;;;;13.40;9.00;;;4.80;99.90;;;;;;5035827;28;20569;-74
2022/04/27 00:52:38;;;;;;;11.60;9.33;;;4.80;99.90;;;;;;5053822;28;20100;-75
2022/04/27 00:55:04;;;;;;;10.83;8.70;;;4.80;99.90;;;;;;5053919;28;20104;-74
2022/04/27 00:57:30;;;;;;;10.93;9.43;;;4.80;99.90;;;;;;5053587;28;20033;-75
2022/04/27 00:59:56;;;;;;;13.00;10.20;;;4.80;99.90;;;;;;5053586;28;20032;-75
2022/04/27 01:02:21;;;;;;;13.97;10.83;;;4.80;99.90;;;;;;5053461;28;20389;-75
2022/04/27 01:04:47;;;;;;;11.33;9.93;;;4.90;99.90;;;;;;5053353;28;20186;-75
2022/04/27 01:07:14;;;;;;;13.63;10.23;;;4.90;99.90;;;;;;5052629;28;20111;-75
2022/04/27 01:09:40;;;;;;;13.00;10.10;;;4.90;99.90;;;;;;5052639;28;20025;-75
2022/04/27 01:12:06;;;;;;;12.47;9.80;;;5.00;99.90;;;;;;5052647;28;20134;-75
2022/04/27 01:14:49;;;;;;;11.63;9.83;;;5.00;99.90;;;;;;5052524;28;20079;-75
2022/04/27 01:17:15;;;;;;;12.43;9.40;;;5.00;99.90;;;;;;5052456;28;20036;-75
2022/04/27 01:19:41;;;;;;;12.47;9.77;;;5.00;99.90;;;;;;5052566;28;20021;-75
2022/04/27 01:22:06;;;;;;;11.80;10.00;;;5.00;99.90;;;;;;5052521;28;20025;-75
2022/04/27 01:24:32;;;;;;;12.87;10.30;;;5.00;99.90;;;;;;5052622;28;20024;-75
2022/04/27 01:26:58;;;;;;;14.77;10.70;;;5.00;99.90;;;;;;5034953;28;20119;-75
2022/04/27 01:29:24;;;;;;;13.13;9.80;;;5.00;99.90;;;;;;5052548;28;20028;-75
2022/04/27 01:31:50;;;;;;;11.70;9.57;;;4.90;99.90;;;;;;5052951;28;20025;-75
2022/04/27 01:34:16;;;;;;;11.00;9.60;;;4.90;99.90;;;;;;5052436;28;20033;-75
2022/04/27 01:36:42;;;;;;;12.37;9.93;;;4.90;99.90;;;;;;5052251;28;20090;-75
2022/04/27 01:39:08;;;;;;;12.70;10.47;;;4.80;99.90;;;;;;5052535;28;20053;-75
2022/04/27 01:41:34;;;;;;;13.83;10.60;;;4.80;99.90;;;;;;5052346;28;20428;-76
2022/04/27 01:44:00;;;;;;;16.97;10.57;;;4.80;99.90;;;;;;5052342;28;20457;-75
2022/04/27 01:46:27;;;;;;;14.60;10.60;;;4.80;99.90;;;;;;5052272;28;20104;-76
2022/04/27 01:48:54;;;;;;;15.50;11.13;;;4.80;99.90;;;;;;5052294;28;20025;-75
2022/04/27 01:54:14;;;;;;;15.97;11.57;;;4.80;99.90;;;;;;5052177;28;20115;-75
2022/04/27 01:54:18;;;;;;;14.80;11.43;;;4.80;99.90;;;;;;5053056;28;20029;-73
2022/04/27 01:56:44;;;;;;;13.27;11.00;;;4.80;99.90;;;;;;5055801;28;20549;-74
2022/04/27 01:59:10;;;;;;;14.37;11.03;;;4.90;99.90;;;;;;5037829;28;20420;-73
2022/04/27 02:01:36;;;;;;;13.93;11.87;;;4.90;99.90;;;;;;5056059;28;20029;-73
2022/04/27 02:04:01;;;;;;;15.33;12.00;;;4.90;99.90;;;;;;5055571;28;20029;-73
2022/04/27 02:06:28;;;;;;;16.17;12.37;;;4.90;99.90;;;;;;5018609;28;112766;-74
2022/04/27 02:08:54;;;;;;;16.17;13.43;;;5.00;99.90;;;;;;5052240;28;20104;-74
2022/04/27 02:11:26;;;;;;;17.60;13.07;;;5.00;99.90;;;;;;5036747;28;20621;-74
2022/04/27 02:13:55;;;;;;;15.87;12.70;;;5.10;99.90;;;;;;5036852;28;20033;-74
2022/04/27 02:16:24;;;;;;;17.40;12.93;;;5.20;99.90;;;;;;5036877;28;20385;-75
2022/04/27 02:18:50;;;;;;;17.57;13.53;;;5.20;99.90;;;;;;5036943;28;20029;-74
2022/04/27 02:21:16;;;;;;;16.97;13.27;;;5.20;99.90;;;;;;5037162;28;20094;-74
2022/04/27 02:23:42;;;;;;;16.10;13.17;;;5.20;99.90;;;;;;5036946;28;20032;-74
2022/04/27 02:26:08;;;;;;;15.33;13.03;;;5.30;99.90;;;;;;5036728;28;20382;-74
2022/04/27 02:28:34;;;;;;;16.60;13.20;;;5.30;99.90;;;;;;5036758;28;20100;-74
2022/04/27 02:30:59;;;;;;;16.67;13.93;;;5.40;99.90;;;;;;5036839;28;20486;-74
2022/04/27 02:33:25;;;;;;;17.53;13.60;;;5.40;99.90;;;;;;5036504;28;20552;-74
2022/04/27 02:35:50;;;;;;;16.10;12.53;;;5.40;99.90;;;;;;5036532;28;20493;-74
2022/04/27 02:38:16;;;;;;;17.30;13.27;;;5.50;99.90;;;;;;5036498;28;20469;-74
2022/04/27 02:40:42;;;;;;;18.73;13.67;;;5.50;99.90;;;;;;5036394;28;20026;-74
2022/04/27 02:43:07;;;;;;;17.23;13.47;;;5.50;99.90;;;;;;5036832;28;20030;-74
2022/04/27 02:45:33;;;;;;;18.50;14.43;;;5.60;99.90;;;;;;5036574;28;20025;-74
2022/04/27 02:47:58;;;;;;;16.73;13.90;;;5.60;99.90;;;;;;5036259;28;20036;-74
2022/04/27 02:53:08;;;;;;;19.57;13.57;;;5.60;99.90;;;;;;5036294;28;20488;-74
2022/04/27 02:55:34;;;;;;;14.83;12.63;;;5.70;99.90;;;;;;5036342;28;20029;-74
2022/04/27 02:57:59;;;;;;;14.90;12.83;;;5.70;99.90;;;;;;5036342;28;20048;-74
2022/04/27 03:00:25;;;;;;;18.50;14.53;;;5.70;99.90;;;;;;5036487;28;20040;-74
2022/04/27 03:02:50;;;;;;;16.70;13.80;;;5.70;99.90;;;;;;5035994;28;20029;-75
2022/04/27 03:05:17;;;;;;;18.13;14.97;;;5.80;99.90;;;;;;5042020;28;20057;-74
2022/04/27 03:07:42;;;;;;;21.53;14.83;;;5.80;99.90;;;;;;5055874;28;20033;-74
2022/04/27 03:10:08;;;;;;;17.13;14.37;;;5.80;99.90;;;;;;5055987;28;20025;-74
2022/04/27 03:12:37;;;;;;;19.17;15.83;;;5.80;99.90;;;;;;5038117;28;20025;-74
2022/04/27 03:15:03;;;;;;;20.20;15.17;;;5.90;99.90;;;;;;5056132;28;20029;-74
2022/04/27 03:17:29;;;;;;;20.20;15.60;;;5.90;99.90;;;;;;5055477;28;20477;-74
2022/04/27 03:19:54;;;;;;;21.33;15.93;;;5.90;99.90;;;;;;5055503;28;20025;-74
2022/04/27 03:22:20;;;;;;;19.17;15.57;;;5.90;99.90;;;;;;5055558;28;20032;-74
2022/04/27 03:24:45;;;;;;;20.23;16.73;;;5.90;99.90;;;;;;5055613;28;20024;-74
2022/04/27 03:27:11;;;;;;;18.23;15.43;;;6.00;99.90;;;;;;5055502;28;20025;-74
2022/04/27 03:29:36;;;;;;;21.30;17.27;;;5.90;99.90;;;;;;5055296;28;20020;-74
2022/04/27 03:32:02;;;;;;;20.03;15.73;;;6.00;99.90;;;;;;5055667;28;20033;-74
2022/04/27 03:34:28;;;;;;;22.03;16.53;;;6.00;99.90;;;;;;5056000;28;20410;-74
2022/04/27 03:36:53;;;;;;;23.63;18.17;;;6.00;99.90;;;;;;5055269;28;20033;-74
2022/04/27 03:39:19;;;;;;;23.50;18.60;;;6.00;99.90;;;;;;5055250;28;20044;-74
2022/04/27 03:41:44;;;;;;;23.00;18.23;;;6.00;99.90;;;;;;5055203;28;20021;-74
2022/04/27 03:44:10;;;;;;;26.20;19.17;;;6.00;99.90;;;;;;5055018;28;20534;-74
2022/04/27 03:46:36;;;;;;;25.27;19.70;;;6.00;99.90;;;;;;5055141;28;20556;-74
2022/04/27 03:49:01;;;;;;;25.67;19.90;;;6.00;99.90;;;;;;5055080;28;20028;-74
2022/04/27 03:51:27;;;;;;;27.57;20.43;;;6.00;99.90;;;;;;5054903;28;20103;-74
2022/04/27 03:53:52;;;;;;;24.67;19.80;;;6.00;99.90;;;;;;5054949;28;20025;-74
2022/04/27 03:56:18;;;;;;;24.77;19.20;;;6.00;99.90;;;;;;5054749;28;20060;-74
2022/04/27 03:58:43;;;;;;;25.70;19.37;;;6.00;99.90;;;;;;5055066;28;20021;-74
2022/04/27 04:01:09;;;;;;;22.80;18.20;;;5.90;99.90;;;;;;5055268;28;20025;-74
2022/04/27 04:03:35;;;;;;;21.53;17.90;;;6.00;99.90;;;;;;5037000;28;20456;-74
2022/04/27 04:06:00;;;;;;;24.40;18.10;;;5.90;99.90;;;;;;5054486;28;20045;-74
2022/04/27 04:08:26;;;;;;;24.87;19.10;;;5.90;99.90;;;;;;5054584;28;20075;-74
2022/04/27 04:10:51;;;;;;;24.13;18.93;;;5.90;99.90;;;;;;5054514;28;20029;-74
2022/04/27 04:13:17;;;;;;;26.10;19.70;;;5.90;99.90;;;;;;5054536;28;20021;-74
2022/04/27 04:15:43;;;;;;;27.93;19.10;;;5.90;99.90;;;;;;5032227;28;20022;-74
2022/04/27 04:18:10;;;;;;;24.50;17.80;;;5.90;99.90;;;;;;5033598;28;20029;-74
2022/04/27 04:20:36;;;;;;;24.10;18.30;;;5.90;99.90;;;;;;5034745;28;20096;-74
2022/04/27 04:23:01;;;;;;;22.17;17.70;;;5.90;99.90;;;;;;5034454;28;20102;-74
2022/04/27 04:30:57;;;;;;;24.50;18.57;;;5.80;99.90;;;;;;5034486;28;20135;-74
2022/04/27 04:33:22;;;;;;;25.90;19.00;;;5.80;99.90;;;;;;5034360;28;20036;-74
2022/04/27 04:35:48;;;;;;;28.13;19.70;;;5.80;99.90;;;;;;5016622;28;20378;-74
2022/04/27 04:38:14;;;;;;;26.30;19.03;;;5.90;99.90;;;;;;5034147;28;20095;-74
2022/04/27 04:40:40;;;;;;;27.50;19.20;;;5.90;99.90;;;;;;5034070;28;20018;-75
2022/04/27 04:43:06;;;;;;;26.00;18.63;;;5.90;99.90;;;;;;5045303;28;20028;-75
2022/04/27 04:45:31;;;;;;;25.70;19.37;;;5.90;99.90;;;;;;5053896;28;20013;-75
2022/04/27 04:47:57;;;;;;;21.27;17.00;;;5.90;99.90;;;;;;5053773;28;20025;-75
2022/04/27 04:50:23;;;;;;;22.97;16.77;;;5.90;99.90;;;;;;5053730;28;20078;-74
2022/04/27 04:52:49;;;;;;;23.70;18.57;;;6.00;99.90;;;;;;5054016;28;20036;-74
2022/04/27 04:55:14;;;;;;;25.00;18.03;;;6.00;99.90;;;;;;5053559;28;20063;-74
2022/04/27 04:57:40;;;;;;;20.77;16.83;;;6.00;99.90;;;;;;5053622;28;20053;-74
2022/04/27 05:00:08;;;;;;;22.00;16.87;;;6.00;99.90;;;;;;5053628;28;20033;-74
2022/04/27 05:02:35;;;;;;;21.87;16.73;;;6.00;99.90;;;;;;5054147;28;20529;-74
2022/04/27 05:05:04;;;;;;;21.90;16.23;;;6.00;99.90;;;;;;5053448;28;20048;-74
2022/04/27 05:07:34;;;;;;;23.43;17.13;;;6.00;99.90;;;;;;5024432;28;20107;-74
2022/04/27 05:09:59;;;;;;;24.03;18.80;;;6.00;99.90;;;;;;5053870;28;20029;-74
2022/04/27 05:12:25;;;;;;;21.67;17.50;;;6.10;99.90;;;;;;5053171;28;20037;-74
2022/04/27 05:14:52;;;;;;;23.03;17.33;;;6.10;99.90;;;;;;5053623;28;20017;-74
2022/04/27 05:17:18;;;;;;;23.47;17.67;;;6.10;99.90;;;;;;5053582;28;20027;-74
2022/04/27 05:19:43;;;;;;;25.87;18.03;;;6.10;99.90;;;;;;5035810;28;20115;-74
2022/04/27 05:22:09;;;;;;;27.07;19.10;;;6.10;99.90;;;;;;5036422;28;20017;-77
2022/04/27 05:24:35;;;;;;;21.70;16.83;;;6.10;99.90;;;;;;5057712;28;20020;-77
2022/04/27 05:27:01;;;;;;;23.23;17.70;;;6.10;99.90;;;;;;5039383;28;20115;-77
2022/04/27 05:32:12;;;;;;;23.83;17.93;;;6.10;99.90;;;;;;5043900;28;20047;-77
2022/04/27 05:34:37;;;;;;;23.53;18.60;;;6.10;99.90;;;;;;5057819;28;20021;-77
2022/04/27 05:37:03;;;;;;;25.23;18.50;;;6.20;99.90;;;;;;5057845;28;20094;-77
2022/04/27 05:39:29;;;;;;;25.77;19.00;;;6.20;99.90;;;;;;5039683;28;20032;-77
2022/04/27 05:41:55;;;;;;;25.07;18.43;;;6.30;99.90;;;;;;5059598;28;20021;-77
2022/04/27 05:44:22;;;;;;;24.47;17.97;;;6.40;99.90;;;;;;5058829;28;20060;-77
2022/04/27 05:46:55;;;;;;;26.70;19.27;;;6.50;99.90;;;;;;5059053;28;20036;-77
2022/04/27 05:49:21;;;;;;;23.03;18.10;;;6.70;99.90;;;;;;5058391;28;20031;-77
2022/04/27 05:51:47;;;;;;;22.33;17.77;;;6.80;99.90;;;;;;5051571;28;20029;-77
2022/04/27 05:54:14;;;;;;;22.40;17.70;;;7.00;99.90;;;;;;5034918;28;20413;-77
2022/04/27 05:56:41;;;;;;;22.13;17.77;;;7.10;99.90;;;;;;5053119;28;20432;-77
2022/04/27 05:59:07;;;;;;;22.07;16.60;;;7.30;99.90;;;;;;5052772;28;20017;-77
2022/04/27 06:01:33;;;;;;;19.97;17.13;;;7.30;99.90;;;;;;5053015;28;20084;-77
2022/04/27 06:03:58;;;;;;;19.83;16.60;;;7.30;99.90;;;;;;5051314;28;20486;-77
2022/04/27 06:06:24;;;;;;;22.47;17.57;;;7.40;99.90;;;;;;5050466;28;20131;-77
2022/04/27 06:08:50;;;;;;;24.60;17.10;;;7.50;99.90;;;;;;5051168;28;20105;-77
2022/04/27 06:11:16;;;;;;;21.53;17.03;;;7.60;99.90;;;;;;5047884;28;20397;-77
2022/04/27 06:13:43;;;;;;;19.80;16.77;;;7.70;99.90;;;;;;5051499;28;20052;-77
2022/04/27 06:16:08;;;;;;;22.37;17.40;;;7.70;99.90;;;;;;5035437;28;20029;-77
2022/04/27 06:18:34;;;;;;;19.70;16.13;;;7.80;99.90;;;;;;5055206;28;20033;-77
2022/04/27 06:21:00;;;;;;;21.03;16.60;;;7.80;99.90;;;;;;5059246;28;20033;-77
2022/04/27 06:23:26;;;;;;;21.67;16.97;;;7.80;99.90;;;;;;5052429;28;20033;-77
2022/04/27 06:25:52;;;;;;;20.63;16.63;;;7.90;99.90;;;;;;5058515;28;20036;-78
2022/04/27 06:28:17;;;;;;;19.33;16.40;;;7.90;99.90;;;;;;5064610;28;20029;-77
2022/04/27 06:30:43;;;;;;;18.97;15.53;;;8.00;99.90;;;;;;5045430;28;20017;-78
2022/04/27 06:33:09;;;;;;;20.70;15.90;;;8.00;99.90;;;;;;5058211;28;20106;-78
2022/04/27 06:35:35;;;;;;;21.40;15.80;;;8.00;99.90;;;;;;5045874;28;20044;-78
2022/04/27 06:38:00;;;;;;;20.40;16.13;;;8.20;99.90;;;;;;5052561;28;20482;-78
2022/04/27 06:40:26;;;;;;;33.57;24.20;;;8.20;99.90;;;;;;5051285;28;20043;-78
2022/04/27 06:42:53;;;;;;;21.07;16.90;;;8.60;99.90;;;;;;5053923;28;20021;-78
2022/04/27 06:45:19;;;;;;;19.20;15.43;;;8.70;99.90;;;;;;5055987;28;20075;-81
2022/04/27 06:47:44;;;;;;;18.43;13.83;;;8.80;99.90;;;;;;5036786;28;20040;-79
2022/04/27 06:50:13;;;;;;;16.40;12.83;;;8.90;99.90;;;;;;5025331;28;20434;-79
2022/04/27 06:52:42;;;;;;;20.17;16.57;;;9.20;99.90;;;;;;5040460;28;20441;-79
2022/04/27 06:55:09;;;;;;;17.23;14.40;;;9.40;99.90;;;;;;5040617;28;20039;-79
2022/04/27 06:57:35;;;;;;;15.03;12.10;;;9.70;99.90;;;;;;5019640;28;20025;-79
2022/04/27 07:00:02;;;;;;;10.13;8.63;;;9.90;99.90;;;;;;5038692;28;20059;-79
2022/04/27 07:02:28;;;;;;;10.87;9.30;;;10.00;99.90;;;;;;5038811;28;20032;-79
2022/04/27 07:04:59;;;;;;;13.50;9.17;;;9.80;99.90;;;;;;5035661;28;20045;-79
2022/04/27 07:07:27;;;;;;;11.97;9.50;;;9.90;99.90;;;;;;5038889;28;20576;-79
2022/04/27 07:09:54;;;;;;;10.70;9.13;;;10.30;99.90;;;;;;5036683;28;20033;-79
2022/04/27 07:12:20;;;;;;;12.83;11.33;;;10.20;99.90;;;;;;5036294;28;20056;-78
2022/04/27 07:14:46;;;;;;;12.83;10.47;;;10.10;99.90;;;;;;5035350;28;20040;-78
2022/04/27 07:17:12;;;;;;;13.57;11.30;;;10.10;99.90;;;;;;5037632;28;20078;-77
2022/04/27 07:19:38;;;;;;;11.47;8.93;;;10.20;99.90;;;;;;5038761;28;20063;-78
2022/04/27 07:22:05;;;;;;;11.17;9.43;;;10.30;99.90;;;;;;5037940;28;20117;-78
2022/04/27 07:24:31;;;;;;;9.80;8.73;;;10.40;99.90;;;;;;5018159;28;20100;-77
2022/04/27 07:26:56;;;;;;;9.47;7.97;;;10.30;99.90;;;;;;5036790;28;20033;-76
2022/04/27 07:29:22;;;;;;;9.98;8.38;;;10.20;99.90;;;;;;5036763;28;20391;-77
2022/04/27 07:31:48;;;;;;;13.52;9.43;;;10.20;99.90;;;;;;5035557;28;20043;-77
2022/04/27 07:34:13;;;;;;;11.38;8.57;;;10.50;99.90;;;;;;5036721;28;20035;-77
2022/04/27 07:36:39;;;;;;;11.15;8.98;;;10.50;99.90;;;;;;5037730;28;20036;-77
2022/04/27 07:39:05;;;;;;;9.68;8.68;;;10.60;99.90;;;;;;5035095;28;20031;-77
2022/04/27 07:41:32;;;;;;;10.55;8.55;;;10.60;99.90;;;;;;5037086;28;20029;-76
2022/04/27 07:43:57;;;;;;;9.90;8.85;;;10.50;99.90;;;;;;5017151;28;20413;-77
2022/04/27 07:46:23;;;;;;;12.17;8.60;;;10.50;99.90;;;;;;5036736;28;20029;-76
2022/04/27 07:48:51;;;;;;;11.07;8.85;;;10.40;99.90;;;;;;5034451;28;20091;-76
2022/04/27 07:51:17;;;;;;;12.07;9.13;;;10.30;99.90;;;;;;5033491;28;20021;-76
2022/04/27 07:53:43;;;;;;;12.15;8.90;;;10.30;99.90;;;;;;5014896;28;20063;-77
2022/04/27 07:56:09;;;;;;;11.43;8.93;;;10.50;99.90;;;;;;5033252;28;20037;-77
2022/04/27 07:58:34;;;;;;;9.70;8.40;;;11.10;99.90;;;;;;5032629;28;20033;-76
2022/04/27 08:01:01;;;;;;;9.57;8.18;;;11.10;99.90;;;;;;5031861;28;20039;-76
2022/04/27 08:03:27;;;;;;;9.40;7.97;;;11.00;99.90;;;;;;5031292;28;20037;-78
2022/04/27 08:05:53;;;;;;;9.35;7.90;;;10.90;99.90;;;;;;5034573;28;20045;-78
2022/04/27 08:08:18;;;;;;;9.60;7.70;;;10.90;99.90;;;;;;5035056;28;20095;-78
2022/04/27 08:10:44;;;;;;;10.95;7.88;;;10.90;99.90;;;;;;5047450;28;20098;-78
2022/04/27 08:13:10;;;;;;;8.65;7.18;;;11.00;99.90;;;;;;5042631;28;20029;-78
2022/04/27 08:15:35;;;;;;;9.07;6.80;;;11.10;99.90;;;;;;5049712;28;20033;-78
2022/04/27 08:18:03;;;;;;;9.38;7.50;;;11.30;99.90;;;;;;5050311;28;20529;-78
2022/04/27 08:23:17;;;;;;;8.85;7.47;;;11.50;99.90;;;;;;5040956;28;20099;-78
2022/04/27 08:25:43;;;;;;;9.38;8.25;;;11.50;99.90;;;;;;5045030;28;20021;-78
2022/04/27 08:28:09;;;;;;;7.18;6.15;;;11.50;99.90;;;;;;5048631;28;20037;-78
2022/04/27 08:30:41;;;;;;;7.85;6.13;;;11.50;99.90;;;;;;5048415;28;20094;-78
2022/04/27 08:33:08;;;;;;;6.38;5.47;;;11.50;99.90;;;;;;5036845;28;20041;-78
2022/04/27 08:35:34;;;;;;;6.45;5.63;;;11.60;99.90;;;;;;5033804;28;20048;-78
2022/04/27 08:38:01;;;;;;;5.10;4.60;;;11.90;99.90;;;;;;5045123;28;20122;-78
2022/04/27 08:40:27;;;;;;;5.63;5.07;;;11.90;99.90;;;;;;5047404;28;20382;-78
2022/04/27 08:42:54;;;;;;;5.57;4.45;;;12.70;99.90;;;;;;5045437;28;20059;-78
2022/04/27 08:45:21;;;;;;;6.78;4.95;;;12.50;99.90;;;;;;5030193;28;20029;-78
2022/04/27 08:47:47;;;;;;;5.53;4.95;;;12.70;99.90;;;;;;5029370;28;20486;-78
2022/04/27 08:50:15;;;;;;;6.72;4.95;;;12.70;99.90;;;;;;5048033;28;20102;-78
2022/04/27 08:52:43;;;;;;;9.25;5.60;;;12.90;99.90;;;;;;5043071;28;20033;-79
2022/04/27 08:55:09;;;;;;;6.68;5.95;;;13.20;99.90;;;;;;5040556;28;20022;-78
2022/04/27 08:57:35;;;;;;;6.82;6.13;;;12.70;99.90;;;;;;5039685;28;20493;-79
2022/04/27 09:00:06;;;;;;;7.05;5.80;;;12.80;99.90;;;;;;5037007;28;20040;-79
2022/04/27 09:02:32;;;;;;;9.10;6.05;;;12.50;99.90;;;;;;5047487;28;20037;-79
2022/04/27 09:05:13;;;;;;;7.32;5.47;;;12.20;99.90;;;;;;5031591;28;20037;-79
2022/04/27 09:07:45;;;;;;;5.97;5.05;;;12.10;99.90;;;;;;5025997;28;20036;-80
2022/04/27 09:10:12;;;;;;;6.82;5.45;;;12.50;99.90;;;;;;5045898;28;20033;-80
2022/04/27 09:12:49;;;;;;;7.43;5.20;;;12.70;99.90;;;;;;5045675;28;20836;-80
2022/04/27 09:15:17;;;;;;;10.63;5.93;;;12.40;99.90;;;;;;5045590;28;20029;-80
2022/04/27 09:20:46;;;;;;;5.47;4.43;;;12.50;99.90;;;;;;5045253;28;20711;-80
2022/04/27 09:23:24;;;;;;;6.35;5.50;;;13.00;99.90;;;;;;5047521;28;20025;-80
2022/04/27 09:25:55;;;;;;;5.03;4.47;;;13.50;99.90;;;;;;5043850;28;20378;-80
2022/04/27 09:28:26;;;;;;;6.40;5.40;;;13.80;99.90;;;;;;5047374;28;20077;-77
2022/04/27 09:30:52;;;;;;;8.63;6.50;;;13.80;99.90;;;;;;5046596;28;20047;-77
2022/04/27 09:33:37;;;;;;;6.93;6.22;;;13.70;99.90;;;;;;5046998;28;20025;-77
2022/04/27 09:36:23;;;;;;;8.55;7.05;;;13.60;99.90;;;;;;5039923;28;20121;-77
2022/04/27 09:38:49;;;;;;;8.07;6.32;;;13.80;99.90;;;;;;5046327;28;20461;-77
2022/04/27 09:41:14;;;;;;;6.35;5.32;;;13.90;99.90;;;;;;5038258;28;20033;-76
2022/04/27 09:43:41;;;;;;;6.45;5.65;;;14.00;99.90;;;;;;5047007;28;20104;-77
2022/04/27 09:46:25;;;;;;;6.13;5.05;;;13.70;99.90;;;;;;5025905;28;20029;-77
2022/04/27 09:49:14;;;;;;;6.03;5.20;;;13.60;99.90;;;;;;5027356;28;20029;-77
2022/04/27 09:51:51;;;;;;;6.55;5.60;;;13.80;99.90;;;;;;5042478;28;20088;-77
2022/04/27 09:54:30;;;;;;;6.93;5.50;;;13.90;99.90;;;;;;5047150;28;20119;-77
2022/04/27 09:57:02;;;;;;;5.47;4.97;;;13.60;99.90;;;;;;5046762;28;20021;-76
2022/04/27 09:59:34;;;;;;;5.38;4.60;;;13.90;99.90;;;;;;5028190;28;20112;-77
2022/04/27 10:02:08;;;;;;;8.00;5.20;;;13.80;99.90;;;;;;5027214;28;20433;-77
2022/04/27 10:04:35;;;;;;;5.78;5.13;;;13.70;99.90;;;;;;5031852;28;20025;-77
2022/04/27 10:07:01;;;;;;;7.38;6.05;;;13.70;99.90;;;;;;5042872;28;20037;-77
2022/04/27 10:09:29;;;;;;;6.22;5.60;;;13.70;99.90;;;;;;5037864;28;20049;-77
2022/04/27 10:11:55;;;;;;;7.00;5.95;;;13.70;99.90;;;;;;5044985;28;20056;-77
2022/04/27 10:14:22;;;;;;;6.20;5.53;;;13.70;99.90;;;;;;5046428;28;20061;-77
2022/04/27 10:16:49;;;;;;;7.45;5.75;;;13.30;99.90;;;;;;5048597;28;20044;-77
2022/04/27 10:19:16;;;;;;;7.95;6.45;;;13.30;99.90;;;;;;5045507;28;20108;-77
2022/04/27 10:21:56;;;;;;;7.40;6.63;;;13.30;99.90;;;;;;5052731;28;20024;-78
2022/04/27 10:24:33;;;;;;;8.10;6.00;;;13.30;99.90;;;;;;5050184;28;20021;-78
2022/04/27 10:27:41;;;;;;;7.18;6.47;;;13.40;99.90;;;;;;5032958;28;20385;-67
2022/04/27 10:30:10;;;;;;;8.52;7.13;;;13.30;99.90;;;;;;5034011;28;20037;-76
2022/04/27 10:32:48;;;;;;;10.05;7.35;;;13.20;99.90;;;;;;5033691;28;20029;-76
2022/04/27 10:35:19;;;;;;;7.90;7.10;;;13.10;99.90;;;;;;5033535;28;20033;-76
2022/04/27 10:37:47;;;;;;;8.75;7.35;;;13.10;99.90;;;;;;5044472;28;20052;-76
2022/04/27 10:40:38;;;;;;;9.70;7.43;;;13.20;99.90;;;;;;5053022;28;20021;-76
2022/04/27 10:43:06;;;;;;;9.02;7.88;;;13.20;99.90;;;;;;5035244;28;20056;-76
2022/04/27 10:45:33;;;;;;;13.38;8.88;;;13.50;99.90;;;;;;5053313;28;20105;-76
2022/04/27 10:48:03;;;;;;;10.60;8.68;;;13.60;99.90;;;;;;5053376;28;20021;-76
2022/04/27 10:50:30;;;;;;;11.90;9.50;;;13.80;99.90;;;;;;5053277;28;20041;-76
2022/04/27 10:53:00;;;;;;;9.25;7.90;;;13.70;99.90;;;;;;5056701;28;20431;-76
2022/04/27 10:55:35;;;;;;;9.68;8.15;;;13.70;99.90;;;;;;5044718;28;20048;-76
2022/04/27 10:58:22;;;;;;;9.45;8.48;;;13.80;99.90;;;;;;5041839;28;20031;-76
2022/04/27 11:01:01;;;;;;;8.55;7.65;;;13.80;99.90;;;;;;5043871;28;20025;-76
2022/04/27 11:03:38;;;;;;;8.25;6.78;;;14.00;99.90;;;;;;5042893;28;20100;-76
2022/04/27 11:06:13;;;;;;;8.85;6.65;;;14.00;99.90;;;;;;5050672;28;20120;-76
2022/04/27 11:08:58;;;;;;;8.13;7.10;;;14.20;99.90;;;;;;5046927;28;20021;-76
2022/04/27 11:11:26;;;;;;;9.03;7.60;;;13.80;99.90;;;;;;5044763;28;20033;-76
2022/04/27 11:14:01;;;;;;;11.77;8.50;;;13.60;99.90;;;;;;5037790;28;20317;-76
2022/04/27 11:16:27;;;;;;;8.00;7.18;;;14.00;99.90;;;;;;5040311;28;20447;-77
2022/04/27 11:18:55;;;;;;;8.05;7.03;;;14.20;99.90;;;;;;5052896;28;20115;-77
2022/04/27 11:21:22;;;;;;;10.68;9.02;;;14.30;99.90;;;;;;5049539;28;20458;-78
2022/04/27 11:23:48;;;;;;;11.05;8.27;;;14.30;99.90;;;;;;5053149;28;20078;-78
2022/04/27 11:26:14;;;;;;;9.98;7.90;;;14.20;99.90;;;;;;5033093;28;20473;-77
2022/04/27 11:28:44;;;;;;;10.95;8.88;;;14.30;99.90;;;;;;5033073;28;20021;-77
2022/04/27 11:31:10;;;;;;;8.90;7.72;;;14.20;99.90;;;;;;5052457;28;20408;-77
2022/04/27 11:33:40;;;;;;;10.43;8.32;;;14.20;99.90;;;;;;5052786;28;20121;-77
2022/04/27 11:36:25;;;;;;;9.77;8.10;;;14.60;99.90;;;;;;5052423;28;20474;-77
2022/04/27 11:38:51;;;;;;;8.75;7.45;;;14.70;99.90;;;;;;5034503;28;20033;-77
2022/04/27 11:41:23;;;;;;;9.38;7.32;;;14.40;99.90;;;;;;5039291;28;20060;-77
2022/04/27 11:43:50;;;;;;;9.00;6.78;;;14.10;99.90;;;;;;5052310;28;20028;-77
2022/04/27 11:46:16;;;;;;;7.68;6.40;;;14.00;99.90;;;;;;5051873;28;20504;-78
2022/04/27 11:48:50;;;;;;;6.00;5.18;;;14.60;99.90;;;;;;5032425;28;20089;-77
2022/04/27 11:51:18;;;;;;;7.13;4.95;;;14.80;99.90;;;;;;5046707;28;20082;-77
2022/04/27 11:53:47;;;;;;;5.13;4.40;;;14.70;99.90;;;;;;5032780;28;20072;-77
2022/04/27 11:56:13;;;;;;;6.70;3.92;;;14.70;99.90;;;;;;5013720;28;20393;-77
2022/04/27 11:58:39;;;;;;;4.47;4.05;;;14.90;99.90;;;;;;5045233;28;20048;-77
2022/04/27 12:01:05;;;;;;;5.45;4.10;;;14.70;99.90;;;;;;5043472;28;20482;-77
2022/04/27 12:03:38;;;;;;;6.05;4.47;;;14.80;99.90;;;;;;5034876;28;20754;-79
2022/04/27 12:06:05;;;;;;;5.28;4.60;;;14.30;99.90;;;;;;5012059;28;20107;-79
2022/04/27 12:08:31;;;;;;;5.30;4.80;;;14.50;99.90;;;;;;5033882;28;20044;-79
2022/04/27 12:10:56;;;;;;;6.00;5.40;;;14.50;99.90;;;;;;5046476;28;20025;-78
2022/04/27 12:13:23;;;;;;;5.35;4.72;;;14.70;99.90;;;;;;5047542;28;20025;-79
2022/04/27 12:15:54;;;;;;;5.88;5.15;;;14.80;99.90;;;;;;5050577;28;20028;-67
2022/04/27 12:18:29;;;;;;;5.43;4.90;;;14.80;99.90;;;;;;5052365;28;20170;-67
2022/04/27 12:20:56;;;;;;;5.88;4.43;;;15.00;99.90;;;;;;5053967;28;20046;-68
2022/04/27 12:23:23;;;;;;;5.70;5.10;;;15.10;99.90;;;;;;5053525;28;20032;-67
2022/04/27 12:25:58;;;;;;;5.70;5.10;;;15.10;99.90;;;;;;5054120;28;20060;-67
2022/04/27 12:28:35;;;;;;;7.60;6.22;;;14.70;99.90;;;;;;5054198;28;20052;-67
2022/04/27 12:31:07;;;;;;;6.38;5.55;;;14.60;99.90;;;;;;5053866;28;20060;-71
2022/04/27 12:33:53;;;;;;;7.72;5.70;;;14.50;99.90;;;;;;5053566;28;20108;-67
2022/04/27 12:39:23;;;;;;;6.38;5.63;;;14.50;99.90;;;;;;5052203;28;20074;-67
2022/04/27 12:41:52;;;;;;;6.10;5.40;;;14.60;99.90;;;;;;5050384;28;20120;-66
2022/04/27 12:44:20;;;;;;;5.50;5.00;;;14.50;99.90;;;;;;5051767;28;20138;-66
2022/04/27 12:47:07;;;;;;;4.97;4.40;;;14.60;99.90;;;;;;5052090;28;20102;-66
2022/04/27 12:49:58;;;;;;;5.05;4.55;;;14.80;99.90;;;;;;5045936;28;20499;-66
2022/04/27 12:52:32;;;;;;;5.47;3.72;;;14.80;99.90;;;;;;5051465;28;20029;-66
2022/04/27 12:55:15;;;;;;;4.20;3.45;;;15.20;99.90;;;;;;5051649;28;20020;-67
2022/04/27 12:57:50;;;;;;;4.85;3.92;;;15.00;99.90;;;;;;5051055;28;20036;-67
2022/04/27 13:00:18;;;;;;;3.70;3.30;;;15.10;99.90;;;;;;5047240;28;20123;-66
2022/04/27 13:02:44;;;;;;;4.80;3.92;;;15.50;99.90;;;;;;5051527;28;20386;-67
2022/04/27 13:05:10;;;;;;;4.60;4.20;;;15.60;99.90;;;;;;5051791;28;20418;-67
2022/04/27 13:07:36;;;;;;;4.05;3.63;;;15.20;99.90;;;;;;5052358;28;20603;-66